createdAt,value
2022-08-03T00:01:38.194Z,2.73
2022-08-03T00:04:08.843Z,2.50
2022-08-03T00:06:37.849Z,2.70
2022-08-03T00:09:07.570Z,2.40
2022-08-03T00:11:36.588Z,2.90
2022-08-03T00:14:05.004Z,2.90
2022-08-03T00:16:33.105Z,3.40
2022-08-03T00:19:01.243Z,2.93
2022-08-03T00:21:29.325Z,2.60
2022-08-03T00:23:57.430Z,2.90
2022-08-03T00:26:26.895Z,2.83
2022-08-03T00:28:54.949Z,2.70
2022-08-03T00:31:51.542Z,2.70
2022-08-03T00:34:11.192Z,2.93
2022-08-03T00:36:41.189Z,2.80
2022-08-03T00:39:09.671Z,2.77
2022-08-03T00:41:39.071Z,2.80
2022-08-03T00:44:07.165Z,2.50
2022-08-03T00:46:35.245Z,2.80
2022-08-03T00:49:03.678Z,2.80
2022-08-03T00:51:32.722Z,2.63
2022-08-03T00:54:00.858Z,2.93
2022-08-03T00:56:28.867Z,2.70
2022-08-03T00:58:58.942Z,2.60
2022-08-03T01:01:27.189Z,2.90
2022-08-03T01:04:00.751Z,2.70
2022-08-03T01:06:37.213Z,2.60
2022-08-03T01:09:13.482Z,2.97
2022-08-03T01:12:00.589Z,2.63
2022-08-03T01:14:35.444Z,2.97
2022-08-03T01:17:10.416Z,2.73
2022-08-03T01:19:47.821Z,3.00
2022-08-03T01:22:38.327Z,3.00
2022-08-03T01:25:14.810Z,3.03
2022-08-03T01:27:54.378Z,3.00
2022-08-03T01:30:29.218Z,2.90
2022-08-03T01:33:02.125Z,2.77
2022-08-03T01:35:39.009Z,3.13
2022-08-03T01:38:13.077Z,2.60
2022-08-03T01:40:42.729Z,2.93
2022-08-03T01:43:14.668Z,2.67
2022-08-03T01:46:05.192Z,2.70
2022-08-03T01:48:34.317Z,2.93
2022-08-03T01:51:02.919Z,2.70
2022-08-03T01:53:33.895Z,3.07
2022-08-03T01:56:04.854Z,2.70
2022-08-03T01:58:35.917Z,2.50
2022-08-03T02:01:06.998Z,2.97
2022-08-03T02:03:37.873Z,4.57
2022-08-03T02:07:01.637Z,2.90
2022-08-03T02:09:15.935Z,2.60
2022-08-03T02:11:46.002Z,3.03
2022-08-03T02:14:16.203Z,3.10
2022-08-03T02:16:46.516Z,2.80
2022-08-03T02:19:15.693Z,3.00
2022-08-03T02:21:57.372Z,3.23
2022-08-03T02:24:30.440Z,3.30
2022-08-03T02:27:00.850Z,3.00
2022-08-03T02:29:39.492Z,3.07
2022-08-03T02:32:15.240Z,2.97
2022-08-03T02:34:47.352Z,2.87
2022-08-03T02:37:18.651Z,2.70
2022-08-03T02:39:48.872Z,2.83
2022-08-03T02:42:20.090Z,2.57
2022-08-03T02:44:52.043Z,2.83
2022-08-03T02:47:22.467Z,2.90
2022-08-03T02:49:53.605Z,3.00
2022-08-03T02:52:24.140Z,3.10
2022-08-03T02:54:55.945Z,3.00
2022-08-03T02:57:25.818Z,2.70
2022-08-03T02:59:56.282Z,3.20
2022-08-03T03:02:26.385Z,2.93
2022-08-03T03:05:51.816Z,3.10
2022-08-03T03:07:52.321Z,3.33
2022-08-03T03:10:22.864Z,3.40
2022-08-03T03:12:53.461Z,2.57
2022-08-03T03:15:23.167Z,2.47
2022-08-03T03:17:54.445Z,2.93
2022-08-03T03:20:29.135Z,2.70
2022-08-03T03:23:00.993Z,2.50
2022-08-03T03:25:31.627Z,3.07
2022-08-03T03:28:00.011Z,2.53
2022-08-03T03:30:28.579Z,2.80
2022-08-03T03:32:59.378Z,2.90
2022-08-03T03:35:28.383Z,2.90
2022-08-03T03:37:56.659Z,3.00
2022-08-03T03:40:25.240Z,3.10
2022-08-03T03:42:53.611Z,2.80
2022-08-03T03:45:24.419Z,2.83
2022-08-03T03:47:52.668Z,3.10
2022-08-03T03:50:23.866Z,2.60
2022-08-03T03:52:52.097Z,3.20
2022-08-03T03:55:20.675Z,3.07
2022-08-03T03:57:48.759Z,3.27
2022-08-03T04:00:18.688Z,2.77
2022-08-03T04:02:47.409Z,3.00
2022-08-03T04:05:33.785Z,3.33
2022-08-03T04:08:25.166Z,3.17
2022-08-03T04:11:02.491Z,3.17
2022-08-03T04:13:34.540Z,2.70
2022-08-03T04:16:04.213Z,3.10
2022-08-03T04:18:35.857Z,2.90
2022-08-03T04:21:06.861Z,3.10
2022-08-03T04:23:41.777Z,3.10
2022-08-03T04:26:12.383Z,3.10
2022-08-03T04:28:42.635Z,3.17
2022-08-03T04:31:11.207Z,3.20
2022-08-03T04:33:40.510Z,3.30
2022-08-03T04:36:10.354Z,3.13
2022-08-03T04:38:45.145Z,3.23
2022-08-03T04:41:14.006Z,3.40
2022-08-03T04:43:42.602Z,3.13
2022-08-03T04:46:11.692Z,3.20
2022-08-03T04:48:43.523Z,3.03
2022-08-03T04:51:13.238Z,3.40
2022-08-03T04:53:44.293Z,3.10
2022-08-03T04:56:12.681Z,3.07
2022-08-03T04:58:40.798Z,3.43
2022-08-03T05:01:08.897Z,3.17
2022-08-03T05:03:37.126Z,3.20
2022-08-03T05:06:10.973Z,3.10
2022-08-03T05:08:46.296Z,3.40
2022-08-03T05:11:17.093Z,3.40
2022-08-03T05:13:45.830Z,3.30
2022-08-03T05:16:15.057Z,3.07
2022-08-03T05:18:43.586Z,3.50
2022-08-03T05:21:13.915Z,3.07
2022-08-03T05:23:42.076Z,3.10
2022-08-03T05:26:11.731Z,3.40
2022-08-03T05:28:50.581Z,3.10
2022-08-03T05:31:19.570Z,3.00
2022-08-03T05:33:48.958Z,2.77
2022-08-03T05:36:17.403Z,3.23
2022-08-03T05:38:45.450Z,3.07
2022-08-03T05:41:21.855Z,3.27
2022-08-03T05:43:54.798Z,3.00
2022-08-03T05:46:23.783Z,3.07
2022-08-03T05:48:52.470Z,2.60
2022-08-03T05:51:20.665Z,3.00
2022-08-03T05:53:48.781Z,3.23
2022-08-03T05:56:17.097Z,2.97
2022-08-03T05:58:48.496Z,3.10
2022-08-03T06:01:18.230Z,3.10
2022-08-03T06:03:47.015Z,3.30
2022-08-03T06:06:15.561Z,3.10
2022-08-03T06:08:46.025Z,3.10
2022-08-03T06:11:14.368Z,2.83
2022-08-03T06:13:42.574Z,2.93
2022-08-03T06:16:11.066Z,2.93
2022-08-03T06:18:41.232Z,2.80
2022-08-03T06:21:15.663Z,2.97
2022-08-03T06:23:54.192Z,2.87
2022-08-03T06:26:25.127Z,3.13
2022-08-03T06:28:54.412Z,3.33
2022-08-03T06:31:25.851Z,3.10
2022-08-03T06:34:32.617Z,2.67
2022-08-03T06:36:43.314Z,3.03
2022-08-03T06:39:13.018Z,3.00
2022-08-03T06:41:44.774Z,2.73
2022-08-03T06:44:13.429Z,2.60
2022-08-03T06:46:42.272Z,2.50
2022-08-03T06:49:11.853Z,2.53
2022-08-03T06:52:04.147Z,2.63
2022-08-03T06:54:32.576Z,2.63
2022-08-03T06:57:01.422Z,2.13
2022-08-03T07:00:10.700Z,2.13
2022-08-03T07:02:19.403Z,24.20
2022-08-03T07:04:49.222Z,3.97
2022-08-03T07:07:17.440Z,2.00
2022-08-03T07:09:55.691Z,2.00
2022-08-03T07:12:27.415Z,2.00
2022-08-03T07:15:00.367Z,2.13
2022-08-03T07:17:29.527Z,1.87
2022-08-03T07:19:58.998Z,2.03
2022-08-03T07:22:27.589Z,1.97
2022-08-03T07:24:56.483Z,2.10
2022-08-03T07:27:26.875Z,2.23
2022-08-03T07:29:55.161Z,2.13
2022-08-03T07:32:23.364Z,2.00
2022-08-03T07:34:51.443Z,1.80
2022-08-03T07:37:21.189Z,2.00
2022-08-03T07:39:49.521Z,2.50
2022-08-03T07:42:17.925Z,2.07
2022-08-03T07:44:46.311Z,1.83
2022-08-03T07:47:22.204Z,1.73
2022-08-03T07:49:51.010Z,1.90
2022-08-03T07:52:38.090Z,1.80
2022-08-03T07:55:07.421Z,1.70
2022-08-03T07:57:36.202Z,1.80
2022-08-03T08:00:08.923Z,1.80
2022-08-03T08:02:43.196Z,2.63
2022-08-03T08:05:12.468Z,1.80
2022-08-03T08:07:42.124Z,2.00
2022-08-03T08:10:11.469Z,2.00
2022-08-03T08:12:40.820Z,1.60
2022-08-03T08:15:10.000Z,1.70
2022-08-03T08:17:46.093Z,1.80
2022-08-03T08:20:27.656Z,1.80
2022-08-03T08:23:02.124Z,1.93
2022-08-03T08:25:33.055Z,1.83
2022-08-03T08:28:22.393Z,1.90
2022-08-03T08:30:51.756Z,1.97
2022-08-03T08:33:23.001Z,1.90
2022-08-03T08:35:54.122Z,2.00
2022-08-03T08:38:23.898Z,1.87
2022-08-03T08:40:52.023Z,1.73
2022-08-03T08:43:20.287Z,1.60
2022-08-03T08:45:50.604Z,2.17
2022-08-03T08:48:25.416Z,2.40
2022-08-03T08:50:54.604Z,1.80
2022-08-03T08:53:27.599Z,1.87
2022-08-03T08:56:00.481Z,1.70
2022-08-03T08:58:31.921Z,1.90
2022-08-03T09:01:00.143Z,1.80
2022-08-03T09:03:29.603Z,1.90
2022-08-03T09:06:01.210Z,1.87
2022-08-03T09:08:32.697Z,1.70
2022-08-03T09:11:01.158Z,1.73
2022-08-03T09:13:30.464Z,2.00
2022-08-03T09:16:12.845Z,2.50
2022-08-03T09:18:41.672Z,1.83
2022-08-03T09:21:36.509Z,2.00
2022-08-03T09:24:16.374Z,1.80
2022-08-03T09:26:53.882Z,1.90
2022-08-03T09:29:23.444Z,1.80
2022-08-03T09:32:02.436Z,2.03
2022-08-03T09:34:31.328Z,2.10
2022-08-03T09:36:59.353Z,1.90
2022-08-03T09:39:40.731Z,1.93
2022-08-03T09:42:14.787Z,1.70
2022-08-03T09:44:44.419Z,2.00
2022-08-03T09:47:13.830Z,2.03
2022-08-03T09:49:43.191Z,1.90
2022-08-03T09:52:38.255Z,1.57
2022-08-03T09:56:33.036Z,2.00
2022-08-03T09:58:06.628Z,2.00
2022-08-03T10:00:54.042Z,1.87
2022-08-03T10:03:22.726Z,1.97
2022-08-03T10:05:51.725Z,1.80
2022-08-03T10:08:22.419Z,1.90
2022-08-03T10:10:54.031Z,2.00
2022-08-03T10:13:23.442Z,2.00
2022-08-03T10:16:23.069Z,1.80
2022-08-03T10:18:39.949Z,2.10
2022-08-03T10:21:11.413Z,1.90
2022-08-03T10:23:40.651Z,1.77
2022-08-03T10:26:14.235Z,2.23
2022-08-03T10:28:49.855Z,1.80
2022-08-03T10:31:19.387Z,1.73
2022-08-03T10:33:55.796Z,1.97
2022-08-03T10:36:25.767Z,1.70
2022-08-03T10:38:56.532Z,1.90
2022-08-03T10:41:32.382Z,1.70
2022-08-03T10:44:06.936Z,1.80
2022-08-03T10:46:39.296Z,2.00
2022-08-03T10:49:14.257Z,1.80
2022-08-03T10:51:43.688Z,1.60
2022-08-03T10:54:59.761Z,1.80
2022-08-03T10:57:49.750Z,1.77
2022-08-03T11:00:19.208Z,1.90
2022-08-03T11:03:03.023Z,1.90
2022-08-03T11:05:32.934Z,1.47
2022-08-03T11:08:32.654Z,1.53
2022-08-03T11:11:03.251Z,1.80
2022-08-03T11:13:33.923Z,1.60
2022-08-03T11:16:21.984Z,1.73
2022-08-03T11:19:01.588Z,1.90
2022-08-03T11:21:56.835Z,1.90
2022-08-03T11:25:01.732Z,1.90
2022-08-03T11:27:31.909Z,1.60
2022-08-03T11:30:04.494Z,2.00
2022-08-03T11:33:01.344Z,1.80
2022-08-03T11:35:32.187Z,1.93
2022-08-03T11:38:05.811Z,12.77
2022-08-03T11:40:38.780Z,2.57
2022-08-03T11:43:08.355Z,2.03
2022-08-03T11:45:39.209Z,1.93
2022-08-03T11:48:17.664Z,1.70
2022-08-03T11:50:46.338Z,2.30
2022-08-03T11:53:19.785Z,2.43
2022-08-03T11:55:49.781Z,2.10
2022-08-03T11:59:00.850Z,1.70
2022-08-03T12:01:11.410Z,1.80
2022-08-03T12:03:39.617Z,1.70
2022-08-03T12:06:11.686Z,1.67
2022-08-03T12:08:40.662Z,1.97
2022-08-03T12:11:10.693Z,1.90
2022-08-03T12:14:45.642Z,1.80
2022-08-03T12:16:32.891Z,2.13
2022-08-03T12:19:02.314Z,2.00
2022-08-03T12:21:30.878Z,1.70
2022-08-03T12:24:00.490Z,1.80
2022-08-03T12:26:30.387Z,1.80
2022-08-03T12:28:58.688Z,1.77
2022-08-03T12:31:26.848Z,1.90
2022-08-03T12:34:02.710Z,1.70
2022-08-03T12:36:32.670Z,1.67
2022-08-03T12:39:02.609Z,1.53
2022-08-03T12:41:34.236Z,1.90
2022-08-03T12:44:03.389Z,2.10
2022-08-03T12:46:33.404Z,1.97
2022-08-03T12:49:08.100Z,2.10
2022-08-03T12:51:38.474Z,1.83
2022-08-03T12:54:07.290Z,12.03
2022-08-03T12:56:35.910Z,22.57
2022-08-03T12:59:24.961Z,8.07
2022-08-03T13:02:01.279Z,2.10
2022-08-03T13:04:35.446Z,4.43
2022-08-03T13:07:06.374Z,3.47
2022-08-03T13:09:44.793Z,2.07
2022-08-03T13:12:14.642Z,1.80
2022-08-03T13:14:43.442Z,2.37
2022-08-03T13:17:11.644Z,2.00
2022-08-03T13:19:41.888Z,1.60
2022-08-03T13:22:13.699Z,1.80
2022-08-03T13:24:42.224Z,1.73
2022-08-03T13:27:58.910Z,1.60
2022-08-03T13:29:59.523Z,1.70
2022-08-03T13:32:27.915Z,1.60
2022-08-03T13:34:57.374Z,1.80
2022-08-03T13:37:25.773Z,1.63
2022-08-03T13:39:59.263Z,1.80
2022-08-03T13:42:30.333Z,2.10
2022-08-03T13:44:58.645Z,1.83
2022-08-03T13:47:27.134Z,1.90
2022-08-03T13:50:01.940Z,1.63
2022-08-03T13:52:34.393Z,1.60
2022-08-03T13:55:02.583Z,1.90
2022-08-03T13:58:03.394Z,1.97
2022-08-03T14:00:28.190Z,1.83
2022-08-03T14:03:12.558Z,1.97
2022-08-03T14:05:42.579Z,1.97
2022-08-03T14:08:12.319Z,1.80
2022-08-03T14:10:42.443Z,2.00
2022-08-03T14:13:16.578Z,1.90
2022-08-03T14:15:49.916Z,1.80
2022-08-03T14:18:28.855Z,1.90
2022-08-03T14:21:06.015Z,1.70
2022-08-03T14:23:37.445Z,1.97
2022-08-03T14:26:05.725Z,1.77
2022-08-03T14:28:34.088Z,1.93
2022-08-03T14:31:02.845Z,1.73
2022-08-03T14:33:30.878Z,1.80
2022-08-03T14:35:59.460Z,1.70
2022-08-03T14:38:27.584Z,1.83
2022-08-03T14:40:57.119Z,2.00
2022-08-03T14:43:25.587Z,1.90
2022-08-03T14:46:01.944Z,1.83
2022-08-03T14:50:31.107Z,1.90
2022-08-03T14:51:18.625Z,1.80
2022-08-03T14:53:47.279Z,1.60
2022-08-03T14:56:16.764Z,1.90
2022-08-03T14:58:44.823Z,2.00
2022-08-03T15:02:03.314Z,1.70
2022-08-03T15:04:01.121Z,1.60
2022-08-03T15:06:29.248Z,1.73
2022-08-03T15:09:21.737Z,1.87
2022-08-03T15:11:47.313Z,2.00
2022-08-03T15:14:15.455Z,1.83
2022-08-03T15:16:43.707Z,1.80
2022-08-03T15:20:02.841Z,2.10
2022-08-03T15:22:00.859Z,1.80
2022-08-03T15:24:29.569Z,1.83
2022-08-03T15:26:59.128Z,1.90
2022-08-03T15:30:07.450Z,1.90
2022-08-03T15:32:15.980Z,1.83
2022-08-03T15:34:50.307Z,1.80
2022-08-03T15:37:19.976Z,1.83
2022-08-03T15:39:59.991Z,1.90
2022-08-03T15:42:31.034Z,1.73
2022-08-03T15:44:59.768Z,1.97
2022-08-03T15:47:28.238Z,2.00
2022-08-03T15:49:56.569Z,1.80
2022-08-03T15:52:24.768Z,2.80
2022-08-03T15:54:52.847Z,2.00
2022-08-03T15:57:21.332Z,3.50
2022-08-03T15:59:51.803Z,2.10
2022-08-03T16:02:20.136Z,1.93
2022-08-03T16:04:48.231Z,1.80
2022-08-03T16:07:36.581Z,2.20
2022-08-03T16:10:05.024Z,1.90
2022-08-03T16:12:33.116Z,2.00
2022-08-03T16:15:02.749Z,1.80
2022-08-03T16:17:31.220Z,1.80
2022-08-03T16:19:59.579Z,2.30
2022-08-03T16:22:28.084Z,1.97
2022-08-03T16:24:57.249Z,2.00
2022-08-03T16:27:56.582Z,2.10
2022-08-03T16:30:16.906Z,2.00
2022-08-03T16:32:45.109Z,1.70
2022-08-03T16:35:19.801Z,2.00
2022-08-03T16:37:50.787Z,1.80
2022-08-03T16:40:26.363Z,2.00
2022-08-03T16:42:54.433Z,2.03
2022-08-03T16:45:24.018Z,1.80
2022-08-03T16:48:01.827Z,2.10
2022-08-03T16:50:33.880Z,1.80
2022-08-03T16:53:03.482Z,1.97
2022-08-03T16:55:48.901Z,2.20
2022-08-03T16:58:19.674Z,2.50
2022-08-03T17:01:10.953Z,2.20
2022-08-03T17:04:01.272Z,1.90
2022-08-03T17:06:34.188Z,2.00
2022-08-03T17:09:08.882Z,1.70
2022-08-03T17:11:43.073Z,2.03
2022-08-03T17:14:13.706Z,2.10
2022-08-03T17:16:52.212Z,2.00
2022-08-03T17:19:24.486Z,9.47
2022-08-03T17:22:01.367Z,5.03
2022-08-03T17:24:33.265Z,3.00
2022-08-03T17:27:03.865Z,3.43
2022-08-03T17:29:45.249Z,2.20
2022-08-03T17:32:18.420Z,2.73
2022-08-03T17:34:50.208Z,6.47
2022-08-03T17:37:49.765Z,5.33
2022-08-03T17:40:11.865Z,2.30
2022-08-03T17:42:46.156Z,5.07
2022-08-03T17:45:19.344Z,2.60
2022-08-03T17:47:57.345Z,2.47
2022-08-03T17:50:35.516Z,2.57
2022-08-03T17:53:07.531Z,2.30
2022-08-03T17:55:55.335Z,2.50
2022-08-03T17:58:38.502Z,2.23
2022-08-03T18:01:57.063Z,3.50
2022-08-03T18:04:29.916Z,2.20
2022-08-03T18:07:00.182Z,2.20
2022-08-03T18:10:05.317Z,2.40
2022-08-03T18:12:32.578Z,2.23
2022-08-03T18:15:08.382Z,2.20
2022-08-03T18:20:41.235Z,2.27
2022-08-03T18:23:24.728Z,2.40
2022-08-03T18:26:01.197Z,4.93
2022-08-03T18:28:29.806Z,4.40
2022-08-03T18:30:58.499Z,4.43
2022-08-03T18:34:16.431Z,4.40
2022-08-03T18:36:22.117Z,3.10
2022-08-03T18:39:00.363Z,3.47
2022-08-03T18:41:34.362Z,3.53
2022-08-03T18:44:08.490Z,3.70
2022-08-03T18:46:48.405Z,4.30
2022-08-03T18:49:29.789Z,4.10
2022-08-03T18:52:12.446Z,4.00
2022-08-03T18:55:02.880Z,3.80
2022-08-03T18:57:44.185Z,4.00
2022-08-03T19:00:17.277Z,4.37
2022-08-03T19:02:58.650Z,4.90
2022-08-03T19:05:52.941Z,5.30
2022-08-03T19:08:28.072Z,4.80
2022-08-03T19:11:02.252Z,4.43
2022-08-03T19:13:41.428Z,5.10
2022-08-03T19:16:21.414Z,5.37
2022-08-03T19:18:50.135Z,7.50
2022-08-03T19:21:18.387Z,5.50
2022-08-03T19:23:49.730Z,5.70
2022-08-03T19:26:31.059Z,6.17
2022-08-03T19:29:00.208Z,5.80
2022-08-03T19:31:31.038Z,5.60
2022-08-03T19:34:04.523Z,5.70
2022-08-03T19:36:40.390Z,5.90
2022-08-03T19:39:25.576Z,6.90
2022-08-03T19:41:59.177Z,6.33
2022-08-03T19:44:40.985Z,6.53
2022-08-03T19:47:12.070Z,5.83
2022-08-03T19:50:02.827Z,6.33
2022-08-03T19:52:37.241Z,5.63
2022-08-03T19:55:12.367Z,5.93
2022-08-03T19:57:47.161Z,6.07
2022-08-03T20:00:26.575Z,6.47
2022-08-03T20:02:59.498Z,6.77
2022-08-03T20:05:28.520Z,7.70
2022-08-03T20:08:01.051Z,7.13
2022-08-03T20:10:32.139Z,7.50
2022-08-03T20:13:00.867Z,7.00
2022-08-03T20:15:32.120Z,17.10
2022-08-03T20:18:00.639Z,7.83
2022-08-03T20:20:31.654Z,8.70
2022-08-03T20:23:03.986Z,8.43
2022-08-03T20:25:48.917Z,8.60
2022-08-03T20:28:31.618Z,7.47
2022-08-03T20:31:00.208Z,8.17
2022-08-03T20:33:45.796Z,8.10
2022-08-03T20:36:15.787Z,7.87
2022-08-03T20:38:47.492Z,8.10
2022-08-03T20:41:17.866Z,8.70
2022-08-03T20:43:49.333Z,8.33
2022-08-03T20:46:32.745Z,7.70
2022-08-03T20:49:07.461Z,8.20
2022-08-03T20:51:50.083Z,8.07
2022-08-03T20:54:31.311Z,8.43
2022-08-03T20:57:14.447Z,8.63
2022-08-03T20:59:50.800Z,8.90
2022-08-03T21:02:29.588Z,9.70
2022-08-03T21:05:03.814Z,8.83
2022-08-03T21:08:05.813Z,9.83
2022-08-03T21:10:31.534Z,8.63
2022-08-03T21:12:57.498Z,2.30
2022-08-03T21:13:16.422Z,9.57
2022-08-03T21:16:06.774Z,9.00
2022-08-03T21:18:42.765Z,9.20
2022-08-03T21:21:15.289Z,9.27
2022-08-03T21:23:48.619Z,9.17
2022-08-03T21:26:18.274Z,9.10
2022-08-03T21:28:48.737Z,9.13
2022-08-03T21:31:24.916Z,8.97
2022-08-03T21:33:56.372Z,10.07
2022-08-03T21:36:24.890Z,8.80
2022-08-03T21:38:56.666Z,9.40
2022-08-03T21:41:26.236Z,9.60
2022-08-03T21:43:55.808Z,10.23
2022-08-03T21:46:24.738Z,9.10
2022-08-03T21:48:56.182Z,8.17
2022-08-03T21:51:26.966Z,7.73
2022-08-03T21:54:02.341Z,10.23
2022-08-03T21:56:37.260Z,10.07
2022-08-03T21:59:08.651Z,8.40
2022-08-03T22:01:40.652Z,9.10
2022-08-03T22:04:16.600Z,7.87
2022-08-03T22:06:59.479Z,7.73
2022-08-03T22:09:27.829Z,7.83
2022-08-03T22:11:56.295Z,7.43
2022-08-03T22:14:26.110Z,7.27
2022-08-03T22:16:54.854Z,7.50
2022-08-03T22:19:23.064Z,7.27
2022-08-03T22:21:51.425Z,7.83
2022-08-03T22:24:23.985Z,7.43
2022-08-03T22:27:10.298Z,7.20
2022-08-03T22:29:42.969Z,8.30
2022-08-03T22:32:11.456Z,7.33
2022-08-03T22:34:43.267Z,6.87
2022-08-03T22:37:12.967Z,7.23
2022-08-03T22:39:41.434Z,7.30
2022-08-03T22:42:10.294Z,7.07
2022-08-03T22:44:40.226Z,7.07
2022-08-03T22:47:09.916Z,7.07
2022-08-03T22:49:38.778Z,6.90
2022-08-03T22:52:08.443Z,7.03
2022-08-03T22:54:36.934Z,6.80
2022-08-03T22:57:05.616Z,7.23
2022-08-03T22:59:39.829Z,6.83
2022-08-03T23:02:21.342Z,7.13
2022-08-03T23:04:52.433Z,7.10
2022-08-03T23:07:23.398Z,6.50
2022-08-03T23:09:53.065Z,6.67
2022-08-03T23:12:21.781Z,6.80
2022-08-03T23:14:56.825Z,6.70
2022-08-03T23:17:28.266Z,6.53
2022-08-03T23:19:58.832Z,6.30
2022-08-03T23:22:30.212Z,6.30
2022-08-03T23:25:01.367Z,6.80
2022-08-03T23:27:31.204Z,5.97
2022-08-03T23:30:00.315Z,6.27
2022-08-03T23:32:31.032Z,5.90
2022-08-03T23:35:18.817Z,6.60
2022-08-03T23:38:10.798Z,6.43
2022-08-03T23:40:35.973Z,5.47
2022-08-03T23:43:06.177Z,6.00
2022-08-03T23:45:37.294Z,5.77
2022-08-03T23:48:07.407Z,6.30
2022-08-03T23:50:44.299Z,6.17
2022-08-03T23:53:18.318Z,6.17
2022-08-03T23:56:04.626Z,5.67
2022-08-03T23:58:47.697Z,5.90
